Roscoe, MO

2:55 AM CDT on July 14, 2014 (GMT -0500)
Whiteman Air Force Base (KSZL) Elev 869 ft | 38.73 °N, 93.55 °W | Change Station

Current weather conditions updated 7 minutes ago

Partly Cloudy
Partly Cloudy
68 °F
Feels Like 68 °F
N
4
Wind Variable Wind from WSW

Today is forecast to be Warmer than yesterday. Showers and thunderstorms late.

Today
High -- | Low -- °F
--% Chance of Precip.
Yesterday
High -- | Low -- °F
Precip. -- in
6:04 AM 8:37 PM
Waning Gibbous, 95% visible
Pressure 29.96 in
Visibility 6.0 miles
Clouds Few 20000 ft
Dew Point 63 °F
Humidity 83%
Rainfall 0.00 in
Snow Depth Not available.
UV 0 out of 12
Pollen 4.60 out of 12
Air Quality Not available.
Flu Activity Sporadic
SPECI KSZL 140748Z 24003KT 6SM R19/5000FT BR FEW200 20/17 A2996 RMK AO2A $

More Conditions Fewer Conditions

Pressure 29.96 in
Visibility 6.0 miles
Clouds Few 20000 ft
Dew Point 63 °F
Humidity 83%
Rainfall 0.00 in
Snow Depth Not available.
UV 0 out of 12
Pollen 4.60 out of 12
Air Quality Not available.
Flu Activity Sporadic
SPECI KSZL 140748Z 24003KT 6SM R19/5000FT BR FEW200 20/17 A2996 RMK AO2A $

More Conditions Fewer Conditions

10-Day Weather Forecast

Almanac

Astronomy

Jul. 14, 2014 Rise Set
Actual Time 6:04 AM CDT 8:37 PM CDT
Civil Twilight 5:33 AM CDT 9:08 PM CDT
Nautical Twilight 4:55 AM CDT 9:46 PM CDT
Astronomical Twilight 4:12 AM CDT 10:28 PM CDT
Moon 10:11 PM CDT 8:44 AM CDT
Length of Visible Light 15h 34m
Length of Day
14h 33m
Tomorrow will be 1m 12s shorter.
Waning Gibbous, 95% of the Moon is Illuminated
Today
Waning Gibbous
Jul 18
Last Quarter
Jul 26
New
Aug 3
First Quarter
Aug 10
Full

Today's Extremes

State Highs State Lows

Community

WunderPhotos

Upload Photos

1,733,572 photos uploaded!

Nearby

Snow Depth

Station Depth Elevation
No new snow has been reported.

Earthquake Activity

City Distance Mag. Time & Date
No recent earthquake activity has been reported nearby.
Minimum magnitude displayed is 2.5.

Coastal Water Temperatures

Place Temperature
No Stations Reporting

Nearby Weather Stations

Station Location Temp. Dew Point Humidity Wind Precip. Elev Updated Type
Between Arnica And Bugtussle, Humansville, MO 72.5 °F 70 °F 93% North  at  0.0 mph 0.00 in / hr 1010 ft 2:55 AM CDT Normal
APRSWXNET Humansville MO, Dunnegan, MO 73 °F 72 °F 98% North  at  0 mph 0.00 in / hr 964 ft 11:31 PM CDT MADIS

Show More Stations Show Fewer Stations